Time;durP1;ratioP1;P1;durP2;ratioP2;P2;SDS_P1;SDS_P2;PMS_P1;PMS_P2;Temp;Humidity;BMP_temperature;BMP_pressure;BME280_temperature;BME280_humidity;BME280_pressure;Samples;Min_cycle;Max_cycle;Signal;HPM_P1;HPM_P2
2023/03/24 00:00:27;;;;;;;5.25;1.88;;;;;;;15.58;59.58;99832.69;4966148;28;114265;-70
2023/03/24 00:02:55;;;;;;;5.97;2.28;;;;;;;15.58;59.48;99838.00;4968833;28;114004;-70
2023/03/24 00:05:22;;;;;;;4.00;2.10;;;;;;;15.59;59.69;99834.34;4966143;28;123347;-70
2023/03/24 00:07:50;;;;;;;5.38;1.90;;;;;;;15.59;59.74;99831.69;4964717;28;123980;-69
2023/03/24 00:10:21;;;;;;;4.68;2.28;;;;;;;15.59;59.66;99823.69;4969904;28;113321;-70
2023/03/24 00:12:50;;;;;;;4.85;2.30;;;;;;;15.60;59.88;99820.06;4966181;28;114041;-69
2023/03/24 00:15:20;;;;;;;3.13;2.03;;;;;;;15.61;59.95;99816.38;4961379;28;124278;-70
2023/03/24 00:17:51;;;;;;;3.63;2.10;;;;;;;15.62;59.82;99815.44;4967291;28;124341;-70
2023/03/24 00:20:20;;;;;;;5.85;2.22;;;;;;;15.64;60.05;99808.13;4962339;28;114931;-69
2023/03/24 00:22:55;;;;;;;3.53;2.10;;;;;;;15.64;60.02;99784.13;4959353;28;114185;-69
2023/03/24 00:25:28;;;;;;;3.25;2.20;;;;;;;15.65;60.00;99791.16;4962038;28;123035;-69
2023/03/24 00:27:56;;;;;;;3.65;2.20;;;;;;;15.65;59.98;99780.50;4961920;28;124024;-70
2023/03/24 00:30:24;;;;;;;4.78;2.08;;;;;;;15.66;60.12;99782.16;4959228;28;114072;-70
2023/03/24 00:33:00;;;;;;;3.90;2.00;;;;;;;15.64;60.26;99778.78;4973677;28;113712;-69
2023/03/24 00:35:28;;;;;;;3.80;2.35;;;;;;;15.66;60.00;99781.31;4961241;28;123946;-70
2023/03/24 00:37:55;;;;;;;5.15;2.08;;;;;;;15.66;60.15;99776.81;4974323;28;124776;-70
2023/03/24 00:40:23;;;;;;;4.18;2.15;;;;;;;15.67;60.20;99789.22;4971366;28;113641;-70
2023/03/24 00:42:51;;;;;;;4.68;2.25;;;;;;;15.68;60.10;99779.38;4988157;28;113386;-69
2023/03/24 00:45:21;;;;;;;4.15;2.40;;;;;;;15.68;60.40;99785.56;4964242;28;124443;-70
2023/03/24 00:47:53;;;;;;;4.53;2.28;;;;;;;15.70;60.24;99778.25;4961542;28;122755;-69
2023/03/24 00:50:25;;;;;;;4.15;2.47;;;;;;;15.72;60.45;99775.47;4970726;28;114438;-70
2023/03/24 00:52:54;;;;;;;3.25;1.98;;;;;;;15.73;60.30;99762.03;4965933;28;113946;-70
2023/03/24 00:55:21;;;;;;;4.28;2.33;;;;;;;15.75;60.49;99760.06;4967236;28;124618;-70
2023/03/24 00:57:49;;;;;;;3.70;2.22;;;;;;;15.76;60.40;99756.44;4968940;28;124296;-70
2023/03/24 01:00:20;;;;;;;5.47;2.30;;;;;;;15.77;60.72;99755.44;4965573;28;114539;-70
2023/03/24 01:02:52;;;;;;;4.38;2.10;;;;;;;15.80;60.57;99748.16;4975686;28;113108;-70
2023/03/24 01:05:23;;;;;;;4.13;2.05;;;;;;;15.82;60.56;99743.53;4961966;28;124774;-70
2023/03/24 01:07:55;;;;;;;4.55;2.10;;;;;;;15.84;60.48;99741.56;4946840;28;123688;-69
2023/03/24 01:10:25;;;;;;;4.32;2.03;;;;;;;15.85;60.59;99737.94;4957046;28;113908;-69
2023/03/24 01:12:55;;;;;;;3.05;2.05;;;;;;;15.87;60.52;99731.47;4957447;28;113492;-70
2023/03/24 01:15:32;;;;;;;3.80;2.20;;;;;;;15.89;60.62;99739.38;4946766;28;123385;-70
2023/03/24 01:18:02;;;;;;;3.92;2.08;;;;;;;15.91;60.37;99726.72;4975393;28;123464;-70
2023/03/24 01:20:31;;;;;;;3.83;2.10;;;;;;;15.94;60.63;99721.13;4954003;28;114482;-70
2023/03/24 01:23:00;;;;;;;4.20;2.15;;;;;;;15.94;60.61;99715.78;4957091;28;113958;-70
2023/03/24 01:25:29;;;;;;;3.78;2.20;;;;;;;15.97;60.64;99715.50;4959059;28;124154;-70
2023/03/24 01:27:57;;;;;;;4.72;2.15;;;;;;;15.98;60.49;99722.56;4962111;28;124408;-69
2023/03/24 01:30:26;;;;;;;4.65;2.20;;;;;;;15.98;60.87;99706.53;4955693;28;114191;-70
2023/03/24 01:32:54;;;;;;;3.47;1.90;;;;;;;15.98;60.65;99706.53;4959100;28;114240;-69
2023/03/24 01:35:24;;;;;;;3.15;2.10;;;;;;;15.98;60.65;99706.53;4965344;28;124859;-70
2023/03/24 01:37:55;;;;;;;3.65;1.85;;;;;;;15.99;60.67;99702.03;4959152;28;124271;-70
2023/03/24 01:40:26;;;;;;;4.00;2.00;;;;;;;15.99;60.97;99702.88;4955031;28;113480;-69
2023/03/24 01:42:53;;;;;;;3.45;2.10;;;;;;;16.01;60.87;99700.94;4967133;28;113751;-70
2023/03/24 01:45:56;;;;;;;3.65;2.03;;;;;;;15.99;60.99;99694.84;4967008;28;124777;-69
2023/03/24 01:48:32;;;;;;;2.78;1.85;;;;;;;15.99;60.94;99697.53;4964729;28;124680;-69
2023/03/24 01:51:18;;;;;;;3.95;1.80;;;;;;;15.98;60.93;99679.84;4962069;28;114562;-70
2023/03/24 01:53:52;;;;;;;4.60;2.20;;;;;;;15.97;61.15;99683.47;4957447;28;114987;-69
2023/03/24 01:56:20;;;;;;;3.42;2.08;;;;;;;15.97;60.93;99683.47;4953683;28;123915;-70
2023/03/24 01:58:54;;;;;;;4.05;1.98;;;;;;;15.94;61.08;99679.25;4965385;28;124819;-70
2023/03/24 02:01:43;;;;;;;3.78;2.00;;;;;;;15.94;61.16;99673.06;4962452;28;113317;-70
2023/03/24 02:04:37;;;;;;;4.63;2.13;;;;;;;15.93;61.11;99672.19;4963276;28;114629;-70
2023/03/24 02:07:28;;;;;;;4.32;2.28;;;;;;;15.94;61.17;99673.06;4958632;28;124353;-69
2023/03/24 02:09:56;;;;;;;5.22;2.17;;;;;;;15.94;61.30;99673.06;4972651;28;123362;-70
2023/03/24 02:12:23;;;;;;;4.32;2.10;;;;;;;15.93;61.40;99666.84;4964066;28;113571;-70
2023/03/24 02:14:52;;;;;;;4.20;2.00;;;;;;;15.93;61.41;99666.03;4956623;28;114611;-70
2023/03/24 02:17:48;;;;;;;4.80;2.08;;;;;;;15.92;61.56;99659.00;4944889;28;123970;-70
2023/03/24 02:20:27;;;;;;;3.65;1.98;;;;;;;15.91;61.47;99657.31;4964615;28;124255;-70
2023/03/24 02:23:08;;;;;;;4.65;2.20;;;;;;;15.92;61.40;99654.50;4961985;28;115240;-70
2023/03/24 02:25:55;;;;;;;3.80;2.10;;;;;;;15.91;61.55;99652.78;4960689;28;115621;-70
2023/03/24 02:28:29;;;;;;;3.33;2.20;;;;;;;15.92;61.61;99656.34;4964751;28;124179;-70
2023/03/24 02:31:07;;;;;;;4.75;2.25;;;;;;;15.93;61.57;99650.00;4968203;28;123742;-70
2023/03/24 02:34:01;;;;;;;4.90;2.00;;;;;;;15.92;61.58;99648.31;4981674;28;113839;-70
2023/03/24 02:36:37;;;;;;;3.47;2.30;;;;;;;15.92;61.69;99659.00;4981026;28;113772;-69
2023/03/24 02:39:41;;;;;;;4.25;2.00;;;;;;;15.91;61.63;99657.31;4961139;28;122548;-70
2023/03/24 02:42:24;;;;;;;4.97;2.40;;;;;;;15.90;61.88;99666.31;4956698;28;123496;-69
2023/03/24 02:45:11;;;;;;;5.15;2.13;;;;;;;15.88;61.78;99658.44;4944835;28;114134;-69
2023/03/24 02:48:05;;;;;;;3.47;2.70;;;;;;;15.89;61.78;99661.94;4956746;28;113535;-69
2023/03/24 02:50:48;;;;;;;4.10;2.50;;;;;;;15.89;61.90;99652.09;4960438;28;124024;-69
2023/03/24 02:53:31;;;;;;;3.65;2.20;;;;;;;15.89;62.26;99648.59;4962163;28;122977;-69
2023/03/24 02:56:32;;;;;;;3.95;2.30;;;;;;;15.89;62.07;99648.59;4962348;28;112960;-69
2023/03/24 02:59:26;;;;;;;3.42;2.40;;;;;;;15.88;62.39;99646.88;4983693;28;113126;-70
2023/03/24 03:02:02;;;;;;;4.53;2.35;;;;;;;15.89;62.17;99659.25;4979298;28;123425;-69
2023/03/24 03:04:56;;;;;;;3.63;2.45;;;;;;;15.89;62.16;99660.09;4967294;28;124556;-70
2023/03/24 03:07:26;;;;;;;3.10;2.25;;;;;;;15.90;62.27;99651.13;4983174;28;113374;-69
2023/03/24 03:10:09;;;;;;;5.05;2.80;;;;;;;15.91;62.29;99651.97;4963504;28;114076;-69
2023/03/24 03:12:39;;;;;;;3.33;2.20;;;;;;;15.92;62.25;99669.69;4960121;28;123715;-70
2023/03/24 03:15:11;;;;;;;4.28;2.50;;;;;;;15.93;62.28;99666.84;4964942;28;123449;-69
2023/03/24 03:17:47;;;;;;;3.65;2.38;;;;;;;15.95;62.28;99664.06;4962936;28;115272;-70
2023/03/24 03:20:21;;;;;;;4.68;2.30;;;;;;;15.97;62.26;99675.44;4960927;28;115145;-69
2023/03/24 03:22:58;;;;;;;4.03;2.50;;;;;;;15.98;62.32;99673.66;4961345;28;124724;-69
2023/03/24 03:25:29;;;;;;;3.20;2.20;;;;;;;16.00;62.26;99677.88;4963347;28;124737;-69
2023/03/24 03:28:01;;;;;;;3.45;2.15;;;;;;;16.01;62.33;99679.56;4962373;28;113273;-69
2023/03/24 03:30:39;;;;;;;3.75;2.13;;;;;;;16.00;62.52;99701.91;4959701;28;114084;-70
2023/03/24 03:33:24;;;;;;;3.50;2.20;;;;;;;16.01;62.14;99711.63;4972050;28;123657;-70
2023/03/24 03:36:16;;;;;;;5.80;2.33;;;;;;;16.00;62.10;99715.25;4961406;28;124031;-70
2023/03/24 03:38:55;;;;;;;3.17;1.98;;;;;;;16.02;62.24;99717.81;4959570;28;114392;-70
2023/03/24 03:41:22;;;;;;;3.95;1.80;;;;;;;16.02;61.64;99724.00;4939207;28;113806;-70
2023/03/24 03:43:51;;;;;;;2.28;1.50;;;;;;;15.96;60.96;99735.19;4945545;28;123188;-70
2023/03/24 03:46:18;;;;;;;2.03;1.20;;;;;;;15.92;60.71;99749.81;4965294;28;123767;-70
2023/03/24 03:48:47;;;;;;;1.80;1.15;;;;;;;15.87;60.43;99774.19;4968254;28;113614;-70
2023/03/24 03:51:15;;;;;;;1.90;1.05;;;;;;;15.82;60.10;99780.91;4964932;28;113782;-69
2023/03/24 03:53:52;;;;;;;2.25;0.90;;;;;;;15.74;59.71;99792.22;4965785;28;125001;-70
2023/03/24 03:56:23;;;;;;;2.72;0.90;;;;;;;15.66;59.58;99800.84;4965820;28;123128;-69
2023/03/24 03:59:06;;;;;;;2.17;0.80;;;;;;;15.58;59.44;99784.63;4978048;28;116883;-69
2023/03/24 04:01:36;;;;;;;4.72;1.50;;;;;;;15.48;58.83;99816.56;4958269;28;113786;-69
2023/03/24 04:05:01;;;;;;;4.03;1.20;;;;;;;15.34;58.68;99817.69;4966368;28;123322;-69
2023/03/24 04:08:07;;;;;;;4.10;1.52;;;;;;;15.18;58.55;99814.56;4961168;28;123984;-69
2023/03/24 04:11:10;;;;;;;4.75;1.48;;;;;;;15.03;58.68;99815.81;4963947;28;115467;-69
2023/03/24 04:14:18;;;;;;;5.25;1.60;;;;;;;14.89;58.68;99815.09;4960393;28;114367;-69
2023/03/24 04:17:17;;;;;;;4.72;1.73;;;;;;;14.79;58.63;99822.13;4955735;28;123209;-69
2023/03/24 04:20:00;;;;;;;6.50;1.70;;;;;;;14.70;58.67;99836.19;4960264;28;123099;-69
2023/03/24 04:23:13;;;;;;;4.63;2.05;;;;;;;14.59;58.58;99845.84;4966964;28;113401;-69
2023/03/24 04:25:48;;;;;;;4.78;2.00;;;;;;;14.52;58.78;99854.41;4965029;28;113670;-72
2023/03/24 04:28:25;;;;;;;;;;;;;;;14.44;58.87;99857.66;4962651;28;122922;-71
2023/03/24 04:31:06;;;;;;;7.43;2.10;;;;;;;14.41;58.73;99879.25;4962764;28;125503;-69
2023/03/24 04:34:15;;;;;;;8.63;2.17;;;;;;;14.36;58.94;99892.06;4971473;28;113359;-69
2023/03/24 04:36:53;;;;;;;8.10;2.70;;;;;;;14.31;58.50;99881.72;4959944;28;113655;-69
2023/03/24 04:39:37;;;;;;;5.93;3.13;;;;;;;14.27;58.63;99882.94;4972800;28;123360;-70
2023/03/24 04:42:16;;;;;;;8.77;3.55;;;;;;;14.25;58.60;99889.34;4958835;28;123931;-69
2023/03/24 04:44:45;;;;;;;10.05;3.78;;;;;;;14.25;58.60;99889.34;4952441;28;96927;-69
2023/03/24 04:47:21;;;;;;;8.50;3.80;;;;;;;14.23;58.28;99896.63;4958946;28;114899;-69
2023/03/24 04:50:11;;;;;;;9.90;3.75;;;;;;;14.23;58.46;99885.97;4963642;28;124275;-71
2023/03/24 04:52:40;;;;;;;8.05;3.72;;;;;;;14.23;58.32;99907.25;4954959;28;123386;-72
2023/03/24 04:55:44;;;;;;;9.45;3.40;;;;;;;14.23;58.33;99915.25;4954030;28;113845;-72
2023/03/24 04:58:12;;;;;;;7.90;3.17;;;;;;;14.23;58.31;99912.59;4959685;28;114267;-71
2023/03/24 05:00:42;;;;;;;7.38;3.20;;;;;;;14.23;58.18;99918.75;4964790;28;124042;-71
2023/03/24 05:03:14;;;;;;;7.53;3.17;;;;;;;14.23;58.09;99921.44;4961921;28;124704;-71
2023/03/24 05:05:47;;;;;;;10.75;3.50;;;;;;;14.20;58.12;99909.19;4960457;28;114513;-72
2023/03/24 05:08:16;;;;;;;10.30;3.20;;;;;;;14.20;57.86;99925.19;4960107;28;115471;-71
2023/03/24 05:10:44;;;;;;;6.97;2.85;;;;;;;14.18;58.02;99924.44;4955769;28;123357;-71
2023/03/24 05:13:13;;;;;;;9.48;2.72;;;;;;;14.17;57.86;99936.03;4962897;28;124993;-71
2023/03/24 05:15:47;;;;;;;6.25;2.63;;;;;;;14.14;57.94;99925.63;4962631;28;113870;-72
2023/03/24 05:18:24;;;;;;;8.32;2.75;;;;;;;14.12;57.96;99937.34;4950692;28;112447;-71
2023/03/24 05:20:52;;;;;;;6.35;2.25;;;;;;;14.10;57.99;99940.13;4947475;28;123446;-71
2023/03/24 05:23:21;;;;;;;7.88;2.80;;;;;;;14.06;57.87;99941.31;4959001;28;123043;-72
2023/03/24 05:25:49;;;;;;;8.02;2.42;;;;;;;14.01;57.80;99955.00;4942606;28;114654;-71
2023/03/24 05:28:19;;;;;;;6.90;2.00;;;;;;;13.98;57.81;99957.03;4963152;28;113417;-71
2023/03/24 05:30:47;;;;;;;6.97;2.00;;;;;;;13.94;57.96;99951.06;4958925;28;124086;-71
2023/03/24 05:33:53;;;;;;;9.88;2.03;;;;;;;13.89;57.80;99963.84;4965019;28;124570;-71
2023/03/24 05:36:21;;;;;;;7.88;1.92;;;;;;;13.86;57.90;99957.91;4969461;28;113534;-71
2023/03/24 05:38:56;;;;;;;7.90;2.00;;;;;;;13.82;57.85;99962.59;4962852;28;113147;-71
2023/03/24 05:41:32;;;;;;;8.05;2.28;;;;;;;13.80;57.95;99973.34;4964390;28;123516;-71
2023/03/24 05:44:00;;;;;;;7.60;1.98;;;;;;;13.76;57.92;99969.22;4961850;28;123756;-71
2023/03/24 05:46:27;;;;;;;8.88;2.65;;;;;;;13.73;57.84;99977.44;4960274;28;113273;-71
2023/03/24 05:48:55;;;;;;;10.50;2.75;;;;;;;13.70;57.88;99979.47;4962691;28;115041;-71
2023/03/24 05:51:29;;;;;;;8.57;2.22;;;;;;;13.68;58.05;99976.91;4966108;28;123008;-71
2023/03/24 05:54:04;;;;;;;10.57;2.35;;;;;;;13.66;58.08;99978.84;4967580;28;123060;-71
2023/03/24 05:56:37;;;;;;;9.45;2.67;;;;;;;13.65;58.07;99987.78;4959967;28;115385;-70
2023/03/24 05:59:23;;;;;;;9.13;2.72;;;;;;;13.66;58.04;99988.66;4959380;28;117181;-71
2023/03/24 06:02:20;;;;;;;;;;;;;;;13.62;58.20;100001.31;4956918;28;123667;-71
2023/03/24 06:05:02;;;;;;;11.23;2.90;;;;;;;13.62;58.04;99999.50;4967351;28;124774;-71
2023/03/24 06:07:31;;;;;;;7.95;2.50;;;;;;;13.61;58.12;99996.94;4963927;28;113203;-71
2023/03/24 06:10:01;;;;;;;8.35;2.80;;;;;;;13.60;58.13;99997.91;4986072;28;114357;-71
2023/03/24 06:12:37;;;;;;;8.82;2.50;;;;;;;13.59;58.18;99998.88;4963601;28;123276;-71
2023/03/24 06:15:05;;;;;;;8.13;2.55;;;;;;;13.59;58.14;100005.03;4952697;28;123487;-72
2023/03/24 06:17:32;;;;;;;8.75;2.30;;;;;;;13.58;58.11;100002.47;4983441;28;113742;-71
2023/03/24 06:20:13;;;;;;;10.15;2.10;;;;;;;13.59;58.10;99998.88;4965477;28;113376;-71
2023/03/24 06:22:59;;;;;;;6.95;2.20;;;;;;;13.60;57.89;100005.91;4967501;28;125187;-71
2023/03/24 06:25:34;;;;;;;9.77;2.67;;;;;;;13.60;58.12;100005.91;4951899;28;123385;-72
2023/03/24 06:28:16;;;;;;;8.30;2.20;;;;;;;13.62;58.08;100006.63;4963006;28;113963;-71
2023/03/24 06:30:46;;;;;;;7.30;2.35;;;;;;;13.64;58.08;100012.69;4952678;28;112258;-71
2023/03/24 06:33:20;;;;;;;8.20;2.15;;;;;;;13.68;58.28;100014.19;4956565;28;123217;-71
2023/03/24 06:35:49;;;;;;;8.93;2.30;;;;;;;13.75;58.21;100007.47;4957222;28;123456;-71
2023/03/24 06:38:17;;;;;;;10.80;2.35;;;;;;;13.82;58.09;100014.03;4964041;28;113787;-71
2023/03/24 06:40:44;;;;;;;7.78;2.22;;;;;;;13.91;58.14;100014.34;4964492;28;113068;-71
2023/03/24 06:43:12;;;;;;;12.32;2.53;;;;;;;14.01;58.11;100020.69;4944129;28;122388;-71
2023/03/24 06:45:43;;;;;;;7.18;2.13;;;;;;;14.10;58.13;100035.97;4960771;28;123094;-71
2023/03/24 06:48:18;;;;;;;8.40;2.13;;;;;;;14.19;58.01;100039.81;4955562;28;114265;-71
2023/03/24 06:50:46;;;;;;;10.73;1.92;;;;;;;14.25;57.66;100038.50;4965211;28;115030;-71
2023/03/24 06:53:15;;;;;;;12.82;2.70;;;;;;;14.32;57.70;100031.78;4961220;28;123279;-71
2023/03/24 06:55:42;;;;;;;9.80;1.63;;;;;;;14.35;57.58;100039.50;4969833;28;125678;-71
2023/03/24 06:58:13;;;;;;;8.98;1.77;;;;;;;14.37;57.21;100048.25;4962189;28;113611;-71
2023/03/24 07:01:01;;;;;;;9.80;2.30;;;;;;;14.40;57.16;100045.34;4961821;28;113952;-72
2023/03/24 07:03:47;;;;;;;8.98;2.15;;;;;;;14.47;57.75;100049.28;4965307;28;124926;-71
2023/03/24 07:06:35;;;;;;;7.65;2.05;;;;;;;14.55;57.30;100046.88;4963385;28;123261;-71
2023/03/24 07:09:23;;;;;;;9.57;2.08;;;;;;;14.62;56.95;100043.78;4981090;28;114054;-71
2023/03/24 07:11:50;;;;;;;13.38;2.40;;;;;;;14.67;57.05;100044.28;4965432;28;113037;-71
2023/03/24 07:14:20;;;;;;;11.18;2.10;;;;;;;14.75;57.05;100052.59;4961158;28;123423;-71
2023/03/24 07:16:48;;;;;;;14.13;2.55;;;;;;;14.85;56.88;100058.91;4968624;28;124314;-71
2023/03/24 07:19:34;;;;;;;7.70;1.80;;;;;;;14.93;56.82;100061.00;4960889;28;113431;-71
2023/03/24 07:22:22;;;;;;;9.73;2.17;;;;;;;15.01;56.54;100071.91;4934347;28;113266;-70
2023/03/24 07:25:20;;;;;;;9.40;2.05;;;;;;;15.07;56.60;100073.25;4967534;28;124125;-71
2023/03/24 07:27:56;;;;;;;8.50;2.00;;;;;;;15.12;56.52;100079.94;4953643;28;125063;-71
2023/03/24 07:30:24;;;;;;;14.77;2.17;;;;;;;15.16;56.31;100072.56;4958824;28;114075;-70
2023/03/24 07:33:08;;;;;;;15.80;2.53;;;;;;;15.24;56.26;100071.97;4957227;28;113191;-71
2023/03/24 07:35:40;;;;;;;11.82;2.25;;;;;;;15.29;56.31;100075.97;4973922;28;123931;-71
2023/03/24 07:38:09;;;;;;;10.73;2.42;;;;;;;15.36;55.99;100074.53;4955024;28;125474;-71
2023/03/24 07:40:37;;;;;;;11.05;2.25;;;;;;;15.42;55.97;100070.56;4961985;28;114458;-70
2023/03/24 07:43:04;;;;;;;9.75;2.00;;;;;;;15.47;55.78;100070.22;4965716;28;114214;-71
2023/03/24 07:45:51;;;;;;;11.05;2.40;;;;;;;15.52;55.49;100073.34;4962953;28;123555;-71
2023/03/24 07:48:18;;;;;;;11.90;2.15;;;;;;;15.57;55.90;100068.50;4967200;28;124283;-71
2023/03/24 07:50:45;;;;;;;15.05;2.42;;;;;;;15.65;55.59;100084.78;4965695;28;113290;-71
2023/03/24 07:53:36;;;;;;;10.18;2.15;;;;;;;15.70;55.42;100073.75;4968377;28;113226;-71
2023/03/24 07:56:04;;;;;;;10.32;1.77;;;;;;;15.75;55.47;100083.13;4969968;28;123312;-71
2023/03/24 07:58:31;;;;;;;14.63;2.45;;;;;;;15.81;55.18;100080.94;4966160;28;123816;-70
2023/03/24 08:01:12;;;;;;;12.50;2.20;;;;;;;15.85;54.96;100090.41;4961832;28;114085;-71
2023/03/24 08:03:43;;;;;;;10.50;2.22;;;;;;;15.88;54.93;100090.13;4966428;28;113175;-71
2023/03/24 08:06:31;;;;;;;10.52;1.88;;;;;;;15.90;54.74;100101.56;4966230;28;124108;-72
2023/03/24 08:08:58;;;;;;;13.48;2.30;;;;;;;15.91;54.69;100117.44;4958810;28;123006;-71
2023/03/24 08:11:25;;;;;;;13.50;2.10;;;;;;;15.95;54.70;100115.38;4967943;28;114338;-71
2023/03/24 08:13:53;;;;;;;11.07;2.00;;;;;;;16.00;54.48;100120.38;4961604;28;112854;-71
2023/03/24 08:16:20;;;;;;;11.00;2.05;;;;;;;16.00;54.39;100110.53;4970227;28;123778;-71
2023/03/24 08:19:05;;;;;;;11.20;2.30;;;;;;;16.01;54.24;100133.63;4972595;28;124546;-71
2023/03/24 08:21:55;;;;;;;11.40;2.42;;;;;;;16.03;54.32;100123.66;4987470;28;113852;-71
2023/03/24 08:24:22;;;;;;;12.50;2.13;;;;;;;16.05;54.26;100121.72;4962196;28;114164;-72
2023/03/24 08:26:49;;;;;;;9.40;2.30;;;;;;;16.11;54.45;100117.72;4971466;28;123752;-71
2023/03/24 08:29:16;;;;;;;10.15;1.95;;;;;;;16.21;54.45;100133.84;4966032;28;124519;-71
2023/03/24 08:31:45;;;;;;;10.93;2.45;;;;;;;16.31;54.40;100129.44;4963111;28;115017;-71
2023/03/24 08:34:12;;;;;;;12.98;2.30;;;;;;;16.38;54.18;100129.81;4971939;28;114280;-71
2023/03/24 08:36:40;;;;;;;10.02;2.20;;;;;;;16.44;54.31;100124.81;4966585;28;122894;-72
2023/03/24 08:39:08;;;;;;;12.85;1.90;;;;;;;16.52;54.03;100133.06;4959685;28;123689;-71
2023/03/24 08:41:35;;;;;;;11.85;2.58;;;;;;;16.57;53.87;100129.16;4959227;28;114139;-71
2023/03/24 08:44:04;;;;;;;11.00;2.20;;;;;;;16.60;53.69;100128.94;4966019;28;114525;-71
2023/03/24 08:46:33;;;;;;;10.80;2.20;;;;;;;16.60;53.49;100139.63;4962709;28;123397;-71
2023/03/24 08:49:01;;;;;;;9.88;1.90;;;;;;;16.59;53.28;100132.56;4944063;28;125149;-72
2023/03/24 08:51:28;;;;;;;8.38;1.88;;;;;;;16.62;53.42;100143.03;4963168;28;114090;-71
2023/03/24 08:54:00;;;;;;;12.82;2.22;;;;;;;16.65;53.17;100137.41;4945381;28;112212;-71
2023/03/24 08:56:27;;;;;;;11.48;1.85;;;;;;;16.69;53.21;100144.22;4949162;28;124668;-70
2023/03/24 08:58:54;;;;;;;8.40;2.00;;;;;;;16.73;53.46;100140.31;4954320;28;125059;-71
2023/03/24 09:01:22;;;;;;;7.20;1.98;;;;;;;16.79;53.34;100134.44;4950408;28;113319;-71
2023/03/24 09:03:49;;;;;;;10.00;2.40;;;;;;;16.88;53.21;100139.06;4966144;28;113543;-71
2023/03/24 09:06:17;;;;;;;12.65;2.50;;;;;;;16.92;52.99;100140.50;4958291;28;123838;-71
2023/03/24 09:08:44;;;;;;;9.43;2.13;;;;;;;16.96;52.95;100137.59;4964985;28;122824;-70
2023/03/24 09:11:16;;;;;;;9.48;1.83;;;;;;;16.97;52.16;100139.28;4963935;28;115627;-71
2023/03/24 09:13:43;;;;;;;8.13;2.15;;;;;;;17.01;52.40;100149.59;4959598;28;113914;-72
2023/03/24 09:16:10;;;;;;;8.48;2.10;;;;;;;17.04;52.20;100143.16;4960162;28;124794;-71
2023/03/24 09:18:38;;;;;;;6.53;1.90;;;;;;;17.04;52.20;100161.88;4965191;28;123612;-71
2023/03/24 09:21:06;;;;;;;8.07;1.80;;;;;;;17.06;51.94;100143.88;4955648;28;115949;-71
2023/03/24 09:23:33;;;;;;;8.82;1.67;;;;;;;17.00;51.80;100157.75;4950616;28;114319;-72
2023/03/24 09:26:02;;;;;;;7.40;1.85;;;;;;;16.92;51.88;100145.88;4957722;28;125001;-71
2023/03/24 09:28:30;;;;;;;8.57;1.83;;;;;;;16.87;51.60;100148.06;4932698;28;124135;-71
2023/03/24 09:30:58;;;;;;;9.73;1.77;;;;;;;16.84;51.67;100148.34;4954893;28;113908;-71
2023/03/24 09:33:26;;;;;;;6.45;1.80;;;;;;;16.81;51.78;100163.75;4948475;28;113823;-71
2023/03/24 09:35:58;;;;;;;9.77;2.25;;;;;;;16.80;51.82;100152.22;4949020;28;122981;-72
2023/03/24 09:38:28;;;;;;;8.20;2.13;;;;;;;16.78;51.65;100159.47;4956382;28;124118;-71
2023/03/24 09:41:02;;;;;;;6.72;2.08;;;;;;;16.75;51.72;100165.09;4972059;28;114030;-71
2023/03/24 09:43:46;;;;;;;10.13;1.88;;;;;;;16.72;51.84;100171.53;4957639;28;114017;-71
2023/03/24 09:46:30;;;;;;;7.80;2.10;;;;;;;16.72;51.77;100170.69;4957659;28;124983;-71
2023/03/24 09:48:57;;;;;;;12.05;2.30;;;;;;;16.72;52.18;100166.19;4963801;28;124591;-71
2023/03/24 09:51:27;;;;;;;9.05;2.15;;;;;;;16.80;52.24;100168.25;4957064;28;114301;-71
2023/03/24 09:54:10;;;;;;;9.73;2.58;;;;;;;16.87;52.05;100169.47;4964797;28;114601;-70
2023/03/24 09:56:42;;;;;;;9.23;2.53;;;;;;;16.90;51.62;100163.88;4961834;28;124550;-71
2023/03/24 09:59:18;;;;;;;9.43;2.03;;;;;;;16.89;51.89;100183.56;4968330;28;123549;-72
2023/03/24 10:01:46;;;;;;;9.30;2.38;;;;;;;16.86;51.72;100181.16;4967722;28;114122;-71
2023/03/24 10:04:25;;;;;;;10.65;2.28;;;;;;;16.83;51.59;100189.41;4965153;28;114693;-71
2023/03/24 10:07:38;;;;;;;11.73;2.17;;;;;;;16.75;51.74;100207.88;4952785;28;123734;-71
2023/03/24 10:10:20;;;;;;;8.65;1.90;;;;;;;16.63;51.96;100207.06;4950960;28;122957;-71
2023/03/24 10:12:48;;;;;;;7.32;1.63;;;;;;;16.54;52.13;100195.28;4955449;28;115999;-71
2023/03/24 10:15:34;;;;;;;7.00;1.70;;;;;;;16.45;52.56;100206.72;4966947;28;114960;-71
2023/03/24 10:18:33;;;;;;;8.30;2.10;;;;;;;16.42;52.77;100209.63;4975969;28;123817;-71
2023/03/24 10:21:18;;;;;;;7.13;2.20;;;;;;;16.45;53.28;100204.03;4957011;28;124827;-72
2023/03/24 10:24:04;;;;;;;13.88;2.65;;;;;;;16.53;53.15;100209.59;4961943;28;113527;-71
2023/03/24 10:27:06;;;;;;;9.77;2.40;;;;;;;16.54;53.06;100203.28;4978955;28;113201;-70
2023/03/24 10:29:35;;;;;;;8.88;2.45;;;;;;;16.58;53.16;100211.09;4944159;28;123912;-72
2023/03/24 10:32:14;;;;;;;8.57;2.30;;;;;;;16.64;52.96;100210.59;4968676;28;123851;-71
2023/03/24 10:34:45;;;;;;;7.85;1.98;;;;;;;16.72;53.00;100208.13;4968544;28;114638;-71
2023/03/24 10:37:13;;;;;;;9.35;2.80;;;;;;;16.77;52.45;100216.63;4965882;28;114709;-71
2023/03/24 10:39:40;;;;;;;5.95;2.30;;;;;;;16.79;52.30;100214.69;4955473;28;124282;-71
2023/03/24 10:42:20;;;;;;;10.73;2.22;;;;;;;16.78;52.06;100202.28;4959436;28;124011;-71
2023/03/24 10:44:51;;;;;;;9.73;2.17;;;;;;;16.81;51.99;100212.72;4948272;28;115164;-72
2023/03/24 10:47:24;;;;;;;9.73;2.28;;;;;;;16.81;52.03;100207.38;4954740;28;113785;-71
2023/03/24 10:49:57;;;;;;;8.68;2.50;;;;;;;16.83;52.20;100197.44;4953586;28;124463;-69
2023/03/24 10:52:24;;;;;;;9.48;2.35;;;;;;;16.89;52.04;100204.09;4979471;28;124395;-71
2023/03/24 10:55:02;;;;;;;10.30;2.35;;;;;;;16.93;52.07;100201.06;4962685;28;114277;-71
2023/03/24 10:57:29;;;;;;;7.25;2.05;;;;;;;16.97;52.01;100203.47;4970065;28;114467;-70
2023/03/24 11:00:00;;;;;;;8.35;2.10;;;;;;;17.00;51.84;100200.56;4967098;28;124747;-71
2023/03/24 11:02:31;;;;;;;9.38;1.90;;;;;;;17.01;51.79;100205.78;4966851;28;123879;-70
2023/03/24 11:05:14;;;;;;;7.88;1.90;;;;;;;17.05;51.72;100206.41;4967486;28;115542;-70
2023/03/24 11:07:45;;;;;;;7.90;2.08;;;;;;;17.04;51.41;100207.34;4964409;28;115440;-70
2023/03/24 11:10:14;;;;;;;8.15;1.90;;;;;;;17.04;51.23;100204.69;4966128;28;124726;-71
2023/03/24 11:12:58;;;;;;;9.68;2.17;;;;;;;17.08;51.42;100193.63;4966858;28;124195;-71
2023/03/24 11:15:30;;;;;;;9.13;2.10;;;;;;;17.18;51.53;100193.69;4970198;28;114447;-70
2023/03/24 11:18:15;;;;;;;8.75;1.90;;;;;;;17.26;51.50;100193.91;4960068;28;114199;-70
2023/03/24 11:20:45;;;;;;;7.90;1.90;;;;;;;17.36;51.24;100195.81;4963894;28;124565;-70
2023/03/24 11:23:18;;;;;;;9.57;1.88;;;;;;;17.40;50.85;100197.22;4961468;28;123875;-70
2023/03/24 11:26:00;;;;;;;6.80;1.70;;;;;;;17.46;50.55;100202.94;4959726;28;114262;-70
2023/03/24 11:28:28;;;;;;;7.78;1.77;;;;;;;17.53;50.55;100195.22;4966685;28;113281;-70
2023/03/24 11:30:55;;;;;;;11.00;1.83;;;;;;;17.60;50.13;100193.72;4970140;28;123709;-70
2023/03/24 11:33:28;;;;;;;5.70;1.67;;;;;;;17.66;49.99;100206.59;4954182;28;123895;-70
2023/03/24 11:36:29;;;;;;;8.82;2.03;;;;;;;17.71;50.10;100190.13;4949606;28;114383;-70
2023/03/24 11:39:20;;;;;;;6.18;1.70;;;;;;;17.79;49.90;100202.88;4967347;28;113185;-70
2023/03/24 11:42:10;;;;;;;9.73;2.10;;;;;;;17.87;49.85;100208.44;4962287;28;123773;-71
2023/03/24 11:44:38;;;;;;;9.43;1.75;;;;;;;17.92;49.56;100198.19;4974435;28;123550;-70
2023/03/24 11:47:31;;;;;;;11.00;1.88;;;;;;;17.95;49.27;100197.94;4970751;28;113902;-71
2023/03/24 11:50:07;;;;;;;9.65;1.83;;;;;;;17.93;49.00;100191.81;4965389;28;113996;-70
2023/03/24 11:52:51;;;;;;;6.90;1.73;;;;;;;17.92;48.68;100192.00;4967412;28;124074;-70
2023/03/24 11:55:48;;;;;;;7.93;1.58;;;;;;;17.91;48.87;100180.41;4964843;28;124029;-70
2023/03/24 11:58:24;;;;;;;9.32;1.70;;;;;;;17.96;48.82;100182.69;4962333;28;114419;-70